Time;durP1;ratioP1;P1;durP2;ratioP2;P2;SDS_P1;SDS_P2;PMS_P1;PMS_P2;Temp;Humidity;BMP_temperature;BMP_pressure;BME280_temperature;BME280_humidity;BME280_pressure;Samples;Min_cycle;Max_cycle;Signal;HPM_P1;HPM_P2
2024/03/26 00:01:06;;;;;;;;;;;;;;;11.36;45.45;98042.52;67942;1276;1017180;-65
2024/03/26 00:04:21;;;;;;;;;;;;;;;11.52;44.67;98043.73;67938;1276;1016395;-66
2024/03/26 00:07:24;;;;;;;;;;;;;;;11.65;44.81;98048.88;67916;1276;1016887;-67
2024/03/26 00:10:26;;;;;;;;;;;;;;;11.73;44.16;98050.67;67905;1276;1016178;-65
2024/03/26 00:13:29;;;;;;;;;;;;;;;11.41;44.80;98045.39;67918;1276;1016426;-67
2024/03/26 00:16:32;;;;;;;;;;;;;;;11.53;45.26;98045.73;67931;1276;1016468;-64
2024/03/26 00:19:34;;;;;;;;;;;;;;;11.71;44.78;98044.21;67830;1276;1016336;-62
2024/03/26 00:22:36;;;;;;;;;;;;;;;11.70;44.82;98043.52;67855;1276;1016380;-67
2024/03/26 00:25:39;;;;;;;;;;;;;;;11.73;44.70;98046.85;67986;1276;1018894;-63
2024/03/26 00:28:41;;;;;;;;;;;;;;;11.47;45.03;98049.47;67953;1276;1016330;-67
2024/03/26 00:31:43;;;;;;;;;;;;;;;11.38;45.03;98047.60;67982;1276;1016429;-66
2024/03/26 00:34:46;;;;;;;;;;;;;;;11.29;44.90;98053.48;67918;1276;1016051;-63
2024/03/26 00:37:48;;;;;;;;;;;;;;;11.27;45.17;98056.32;67944;1276;1016417;-66
2024/03/26 00:40:50;;;;;;;;;;;;;;;11.29;45.44;98056.08;67906;1276;1016241;-67
2024/03/26 00:43:52;;;;;;;;;;;;;;;11.54;45.07;98054.77;67880;1276;1015863;-63
2024/03/26 00:46:55;;;;;;;;;;;;;;;11.52;44.67;98055.83;67877;1276;1015857;-62
2024/03/26 00:49:57;;;;;;;;;;;;;;;11.52;44.81;98061.36;67947;1276;1016494;-67
2024/03/26 00:52:59;;;;;;;;;;;;;;;11.53;44.39;98064.45;67890;1276;1016124;-67
2024/03/26 00:56:01;;;;;;;;;;;;;;;11.63;44.21;98062.69;67988;1276;1017771;-67
2024/03/26 00:59:04;;;;;;;;;;;;;;;11.60;44.41;98061.13;67961;1276;1016241;-64
2024/03/26 01:02:06;;;;;;;;;;;;;;;11.63;44.41;98061.42;67906;1276;1016427;-66
2024/03/26 01:05:08;;;;;;;;;;;;;;;11.46;44.74;98065.55;67833;1276;1016508;-63
2024/03/26 01:08:11;;;;;;;;;;;;;;;11.61;44.57;98067.52;67924;1276;1016243;-67
2024/03/26 01:11:13;;;;;;;;;;;;;;;11.61;44.52;98068.77;67926;1276;1016551;-63
2024/03/26 01:14:15;;;;;;;;;;;;;;;11.51;44.79;98071.44;67942;1276;1016535;-67
2024/03/26 01:17:17;;;;;;;;;;;;;;;11.43;44.53;98072.07;67964;1276;1016912;-62
2024/03/26 01:20:20;;;;;;;;;;;;;;;11.27;44.29;98075.02;67969;1276;1016800;-62
2024/03/26 01:23:22;;;;;;;;;;;;;;;11.20;44.05;98075.54;67977;1276;1015947;-63
2024/03/26 01:26:24;;;;;;;;;;;;;;;11.23;43.90;98077.45;67973;1276;1016311;-62
2024/03/26 01:29:27;;;;;;;;;;;;;;;11.33;43.49;98082.08;67972;1276;1016469;-64
2024/03/26 01:32:29;;;;;;;;;;;;;;;11.35;43.32;98081.56;67922;1276;1016155;-67
2024/03/26 01:35:31;;;;;;;;;;;;;;;11.24;43.21;98088.35;67873;1276;1016346;-67
2024/03/26 01:38:33;;;;;;;;;;;;;;;11.22;43.21;98085.19;67914;1276;1016468;-64
2024/03/26 01:41:36;;;;;;;;;;;;;;;11.03;43.40;98090.63;67933;1276;1016501;-67
2024/03/26 01:44:38;;;;;;;;;;;;;;;10.88;43.45;98091.35;67950;1276;1016434;-62
2024/03/26 01:47:40;;;;;;;;;;;;;;;10.65;43.88;98088.68;67980;1276;1016587;-63
2024/03/26 01:50:42;;;;;;;;;;;;;;;10.59;43.87;98085.63;67956;1276;1018661;-64
2024/03/26 01:53:45;;;;;;;;;;;;;;;10.46;43.95;98091.30;67965;1276;1016656;-63
2024/03/26 01:56:47;;;;;;;;;;;;;;;10.64;43.33;98089.83;67943;1276;1016180;-63
2024/03/26 01:59:49;;;;;;;;;;;;;;;10.51;43.44;98093.18;67886;1276;1016441;-67
2024/03/26 02:02:52;;;;;;;;;;;;;;;10.50;43.56;98097.81;67897;1276;1016491;-64
2024/03/26 02:05:54;;;;;;;;;;;;;;;10.49;43.68;98095.27;67883;1276;1018478;-64
2024/03/26 02:09:00;;;;;;;;;;;;;;;10.36;43.41;98094.95;67928;1276;1016388;-67
2024/03/26 02:12:02;;;;;;;;;;;;;;;10.28;43.73;98093.77;67841;1276;1015741;-67
2024/03/26 02:15:05;;;;;;;;;;;;;;;10.20;44.37;98095.04;67872;1276;1016618;-62
2024/03/26 02:18:07;;;;;;;;;;;;;;;10.21;44.15;98098.45;67969;1276;1017048;-67
2024/03/26 02:21:09;;;;;;;;;;;;;;;10.36;43.76;98102.50;67942;1276;1016438;-67
2024/03/26 02:24:12;;;;;;;;;;;;;;;10.45;44.09;98103.76;67953;1276;1016489;-63
2024/03/26 02:27:14;;;;;;;;;;;;;;;10.46;44.00;98101.80;67914;1276;1016409;-62
2024/03/26 02:30:16;;;;;;;;;;;;;;;10.53;43.55;98106.16;67917;1276;1016375;-67
2024/03/26 02:33:18;;;;;;;;;;;;;;;9.87;44.97;98102.02;67848;1276;1016077;-67
2024/03/26 02:36:21;;;;;;;;;;;;;;;9.82;44.88;98102.04;67919;1276;1016465;-66
2024/03/26 02:39:23;;;;;;;;;;;;;;;9.78;45.15;98101.28;67952;1276;1018586;-67
2024/03/26 02:42:25;;;;;;;;;;;;;;;10.05;44.65;98105.02;67931;1276;1016563;-62
2024/03/26 02:45:27;;;;;;;;;;;;;;;9.79;45.24;98108.21;67958;1276;1016174;-67
2024/03/26 02:48:30;;;;;;;;;;;;;;;9.65;45.77;98110.73;67850;1276;1016207;-67
2024/03/26 02:51:32;;;;;;;;;;;;;;;10.05;45.15;98111.64;67877;1276;1016305;-67
2024/03/26 02:54:34;;;;;;;;;;;;;;;9.77;45.72;98109.75;67901;1276;1016172;-65
2024/03/26 02:57:37;;;;;;;;;;;;;;;9.70;45.80;98108.31;67903;1276;1015987;-67
2024/03/26 03:00:39;;;;;;;;;;;;;;;9.52;45.77;98111.06;67926;1276;1016069;-67
2024/03/26 03:03:41;;;;;;;;;;;;;;;9.33;45.99;98113.21;67955;1276;1016515;-67
2024/03/26 03:06:44;;;;;;;;;;;;;;;9.10;46.40;98113.34;67966;1276;1016339;-67
2024/03/26 03:09:46;;;;;;;;;;;;;;;9.14;46.41;98110.16;67959;1276;1016257;-62
2024/03/26 03:12:48;;;;;;;;;;;;;;;9.68;44.90;98104.56;67935;1276;1016426;-67
2024/03/26 03:15:51;;;;;;;;;;;;;;;9.27;46.10;98105.60;67912;1276;1016169;-67
2024/03/26 03:18:53;;;;;;;;;;;;;;;9.91;44.85;98107.72;67914;1276;1016477;-67
2024/03/26 03:21:55;;;;;;;;;;;;;;;10.25;44.29;98106.02;67962;1276;1016549;-64
2024/03/26 03:24:58;;;;;;;;;;;;;;;10.17;44.17;98108.20;67964;1276;1016501;-63
2024/03/26 03:28:00;;;;;;;;;;;;;;;9.90;44.83;98110.19;67957;1276;1016504;-67
2024/03/26 03:31:02;;;;;;;;;;;;;;;10.00;44.60;98113.53;67941;1276;1018058;-67
2024/03/26 03:34:04;;;;;;;;;;;;;;;9.86;44.54;98114.01;67916;1276;1016470;-66
2024/03/26 03:37:07;;;;;;;;;;;;;;;9.72;44.77;98108.30;67916;1276;1016472;-66
2024/03/26 03:40:09;;;;;;;;;;;;;;;9.84;44.42;98112.58;67918;1276;1016765;-67
2024/03/26 03:43:11;;;;;;;;;;;;;;;9.82;44.93;98115.86;67946;1276;1016266;-67
2024/03/26 03:46:13;;;;;;;;;;;;;;;9.86;44.02;98114.69;67951;1276;1016249;-63
2024/03/26 03:49:16;;;;;;;;;;;;;;;9.53;44.42;98118.81;67910;1276;1016311;-62
2024/03/26 03:52:18;;;;;;;;;;;;;;;9.45;44.87;98119.05;67909;1276;1016443;-67
2024/03/26 03:55:20;;;;;;;;;;;;;;;9.51;44.44;98125.09;67918;1276;1016329;-67
2024/03/26 03:58:23;;;;;;;;;;;;;;;9.32;45.26;98130.36;67904;1276;1016326;-67
2024/03/26 04:01:25;;;;;;;;;;;;;;;9.40;45.16;98121.83;67934;1276;1016904;-64
2024/03/26 04:04:27;;;;;;;;;;;;;;;9.29;44.92;98125.55;67841;1276;1016060;-66
2024/03/26 04:07:29;;;;;;;;;;;;;;;9.19;45.10;98123.70;67804;1276;1015998;-67
2024/03/26 04:10:32;;;;;;;;;;;;;;;9.24;45.15;98126.20;67914;1276;1015886;-67
2024/03/26 04:13:34;;;;;;;;;;;;;;;9.26;45.34;98129.23;67936;1276;1018880;-67
2024/03/26 04:16:36;;;;;;;;;;;;;;;9.20;45.35;98134.33;67919;1276;1016185;-62
2024/03/26 04:19:38;;;;;;;;;;;;;;;9.09;45.32;98133.15;67933;1276;1017814;-67
2024/03/26 04:22:41;;;;;;;;;;;;;;;9.16;45.00;98134.43;67918;1276;1017280;-67
2024/03/26 04:25:43;;;;;;;;;;;;;;;9.24;44.87;98131.11;67868;1276;1016445;-67
2024/03/26 04:28:46;;;;;;;;;;;;;;;9.28;45.34;98130.50;67884;1276;1016446;-65
2024/03/26 04:31:48;;;;;;;;;;;;;;;9.22;45.17;98126.52;67873;1276;1016379;-61
2024/03/26 04:34:50;;;;;;;;;;;;;;;9.04;45.57;98129.11;67921;1269;1016507;-67
2024/03/26 04:37:52;;;;;;;;;;;;;;;9.13;45.31;98127.29;67937;1276;1016471;-67
2024/03/26 04:40:55;;;;;;;;;;;;;;;9.17;45.26;98122.48;67947;1276;1016096;-67
2024/03/26 04:43:57;;;;;;;;;;;;;;;9.21;45.55;98122.58;67900;1276;1016449;-66
2024/03/26 04:46:59;;;;;;;;;;;;;;;9.17;45.40;98124.63;67905;1276;1016436;-67
2024/03/26 04:50:02;;;;;;;;;;;;;;;9.28;45.21;98123.64;67921;1276;1016467;-64
2024/03/26 04:53:04;;;;;;;;;;;;;;;9.30;45.13;98127.70;67957;1276;1016463;-65
2024/03/26 04:56:06;;;;;;;;;;;;;;;9.27;45.21;98124.43;67914;1276;1016112;-67
2024/03/26 04:59:10;;;;;;;;;;;;;;;9.36;45.47;98116.14;67909;1276;1016216;-67
2024/03/26 05:02:13;;;;;;;;;;;;;;;9.39;45.30;98119.10;67924;1276;1016394;-62
2024/03/26 05:05:15;;;;;;;;;;;;;;;9.51;45.11;98123.17;67901;1276;1016447;-62
2024/03/26 05:08:18;;;;;;;;;;;;;;;9.64;45.28;98123.86;67890;1276;1016163;-65
2024/03/26 05:11:20;;;;;;;;;;;;;;;9.80;44.77;98123.11;67923;1276;1016382;-64
2024/03/26 05:14:22;;;;;;;;;;;;;;;9.97;44.56;98121.59;67925;1276;1016488;-67
2024/03/26 05:17:24;;;;;;;;;;;;;;;10.18;44.61;98124.71;67921;1276;1016322;-66
2024/03/26 05:20:27;;;;;;;;;;;;;;;10.31;44.64;98122.02;67938;1276;1016551;-66
2024/03/26 05:23:29;;;;;;;;;;;;;;;10.28;44.62;98126.95;67879;1276;1016647;-66
2024/03/26 05:26:31;;;;;;;;;;;;;;;9.85;45.95;98129.96;67886;1276;1016603;-66
2024/03/26 05:29:34;;;;;;;;;;;;;;;10.02;46.17;98128.60;67910;1276;1016472;-66
2024/03/26 05:32:36;;;;;;;;;;;;;;;10.15;46.23;98131.16;67867;1272;1016138;-63
2024/03/26 05:35:39;;;;;;;;;;;;;;;10.32;46.23;98134.70;67881;1276;1016455;-64
2024/03/26 05:38:41;;;;;;;;;;;;;;;10.48;46.23;98133.30;67962;1276;1016474;-66
2024/03/26 05:41:44;;;;;;;;;;;;;;;10.72;46.52;98134.34;67890;1276;1015809;-64
2024/03/26 05:44:46;;;;;;;;;;;;;;;11.03;46.11;98134.01;67933;1276;1016492;-64
2024/03/26 05:47:48;;;;;;;;;;;;;;;11.60;44.94;98125.08;67935;1276;1015971;-66
2024/03/26 05:50:51;;;;;;;;;;;;;;;11.23;46.11;98127.99;67956;1276;1016691;-63
2024/03/26 05:53:53;;;;;;;;;;;;;;;11.75;45.24;98127.77;67941;1276;1016413;-66
2024/03/26 05:56:55;;;;;;;;;;;;;;;11.42;46.17;98132.34;67966;1276;1016212;-66
2024/03/26 05:59:58;;;;;;;;;;;;;;;11.38;46.58;98128.61;67931;1276;1016014;-64
2024/03/26 06:03:00;;;;;;;;;;;;;;;11.75;46.39;98123.67;65385;1276;5370426;-63
2024/03/26 06:06:02;;;;;;;;;;;;;;;12.47;44.94;98119.76;67799;1276;1016121;-64
2024/03/26 06:09:05;;;;;;;;;;;;;;;12.36;45.72;98119.75;67808;1276;1016252;-63
2024/03/26 06:12:09;;;;;;;;;;;;;;;12.77;45.01;98120.84;67861;1276;1016512;-63
2024/03/26 06:15:11;;;;;;;;;;;;;;;12.64;45.71;98121.84;67799;1276;1016473;-63
2024/03/26 06:18:14;;;;;;;;;;;;;;;13.35;44.38;98123.84;67890;1276;1016477;-66
2024/03/26 06:21:16;;;;;;;;;;;;;;;13.72;43.96;98126.21;67945;1276;1018885;-65
2024/03/26 06:24:18;;;;;;;;;;;;;;;13.99;43.83;98130.23;67890;1276;1015985;-66
2024/03/26 06:27:21;;;;;;;;;;;;;;;14.04;43.72;98133.48;67951;1276;1016452;-66
2024/03/26 06:30:23;;;;;;;;;;;;;;;13.97;43.73;98139.71;67965;1276;1016336;-66
2024/03/26 06:33:26;;;;;;;;;;;;;;;14.16;44.03;98144.09;67883;1276;1016477;-64
2024/03/26 06:36:29;;;;;;;;;;;;;;;14.52;43.70;98142.17;67925;1276;1016470;-66
2024/03/26 06:39:31;;;;;;;;;;;;;;;14.64;43.76;98146.95;67971;1276;1016426;-66
2024/03/26 06:42:33;;;;;;;;;;;;;;;14.50;44.52;98158.35;67966;1276;1015931;-66
2024/03/26 06:45:36;;;;;;;;;;;;;;;15.14;43.70;98159.08;67929;1276;1016438;-66
2024/03/26 06:48:38;;;;;;;;;;;;;;;15.14;43.74;98162.39;67919;1276;1016446;-66
2024/03/26 06:51:41;;;;;;;;;;;;;;;15.36;43.30;98155.84;67972;1276;1016578;-66
2024/03/26 06:54:43;;;;;;;;;;;;;;;15.31;43.44;98157.88;67982;1276;1016209;-66
2024/03/26 06:57:46;;;;;;;;;;;;;;;15.40;43.37;98158.11;67955;1276;1018971;-66
2024/03/26 07:00:50;;;;;;;;;;;;;;;15.87;43.05;98156.80;67977;1276;1016184;-65
2024/03/26 07:03:52;;;;;;;;;;;;;;;16.15;43.11;98160.95;67983;1276;1016888;-66
2024/03/26 07:06:55;;;;;;;;;;;;;;;16.45;43.05;98161.61;67860;1276;1016358;-66
2024/03/26 07:09:57;;;;;;;;;;;;;;;16.54;42.47;98165.66;67936;1276;1015920;-65
2024/03/26 07:12:59;;;;;;;;;;;;;;;16.59;43.04;98161.83;67888;1276;1016805;-66
2024/03/26 07:16:01;;;;;;;;;;;;;;;16.79;43.07;98156.04;67952;1276;1016473;-66
2024/03/26 07:19:04;;;;;;;;;;;;;;;17.01;42.42;98159.06;67994;1276;1017162;-66
2024/03/26 07:22:06;;;;;;;;;;;;;;;17.13;42.60;98153.78;67931;1276;1016128;-66
2024/03/26 07:25:08;;;;;;;;;;;;;;;17.28;42.31;98145.98;67949;1276;1016355;-64
2024/03/26 07:28:11;;;;;;;;;;;;;;;17.42;42.38;98143.85;67936;1276;1016378;-66
2024/03/26 07:31:13;;;;;;;;;;;;;;;17.69;42.17;98142.78;67901;1276;1016339;-66
2024/03/26 07:34:16;;;;;;;;;;;;;;;17.80;41.96;98143.98;67920;1275;1016255;-66
2024/03/26 07:37:18;;;;;;;;;;;;;;;17.85;41.67;98148.42;67959;1276;1016284;-65
2024/03/26 07:40:20;;;;;;;;;;;;;;;18.16;41.04;98148.66;67973;1276;1016269;-65
2024/03/26 07:43:23;;;;;;;;;;;;;;;18.19;41.13;98149.86;67951;1276;1016253;-66
2024/03/26 07:46:25;;;;;;;;;;;;;;;18.44;41.28;98152.65;67931;1276;1016495;-66
2024/03/26 07:49:27;;;;;;;;;;;;;;;18.60;40.94;98153.34;67935;1276;1016474;-65
2024/03/26 07:52:29;;;;;;;;;;;;;;;18.62;40.56;98158.56;67933;1276;1016214;-63
2024/03/26 07:55:32;;;;;;;;;;;;;;;18.47;40.52;98159.61;67949;1276;1016189;-66
2024/03/26 07:58:34;;;;;;;;;;;;;;;18.83;41.25;98162.08;67962;1276;1016470;-66
2024/03/26 08:01:36;;;;;;;;;;;;;;;19.29;40.78;98164.45;67966;1276;1016440;-66
2024/03/26 08:04:38;;;;;;;;;;;;;;;19.39;40.15;98162.84;67971;1276;1016465;-63
2024/03/26 08:07:40;;;;;;;;;;;;;;;19.47;39.97;98160.90;67946;1276;1016213;-64
2024/03/26 08:10:43;;;;;;;;;;;;;;;19.69;40.27;98154.19;67928;1276;1016290;-66
2024/03/26 08:13:45;;;;;;;;;;;;;;;20.10;39.68;98150.37;67922;1276;1016862;-66
2024/03/26 08:16:47;;;;;;;;;;;;;;;19.99;39.60;98143.59;67841;1276;1016212;-65
2024/03/26 08:19:50;;;;;;;;;;;;;;;19.94;39.65;98144.32;67982;1276;1019387;-65
2024/03/26 08:22:52;;;;;;;;;;;;;;;20.10;39.45;98134.73;67954;1276;1016623;-66
2024/03/26 08:25:55;;;;;;;;;;;;;;;19.86;40.76;98138.27;67957;1275;1016157;-66
2024/03/26 08:28:57;;;;;;;;;;;;;;;20.06;39.63;98128.02;67906;1276;1016843;-65
2024/03/26 08:31:59;;;;;;;;;;;;;;;20.08;39.22;98126.36;67960;1276;1016701;-64
2024/03/26 08:35:02;;;;;;;;;;;;;;;20.40;38.61;98118.08;67935;1276;1016460;-64
2024/03/26 08:38:04;;;;;;;;;;;;;;;20.29;39.57;98117.18;67961;1276;1019606;-66
2024/03/26 08:41:07;;;;;;;;;;;;;;;20.30;39.72;98120.23;67959;1276;1016441;-66
2024/03/26 08:44:09;;;;;;;;;;;;;;;20.48;38.96;98120.52;67955;1276;1016196;-64
2024/03/26 08:47:11;;;;;;;;;;;;;;;20.20;39.18;98114.23;67937;1276;1016275;-66
2024/03/26 08:50:14;;;;;;;;;;;;;;;20.72;38.56;98112.98;67925;1276;1016336;-66
2024/03/26 08:53:16;;;;;;;;;;;;;;;21.05;38.48;98107.32;67949;1276;1017236;-66
2024/03/26 08:56:18;;;;;;;;;;;;;;;21.23;38.01;98101.31;67965;1276;1016960;-64
2024/03/26 08:59:20;;;;;;;;;;;;;;;21.23;37.54;98094.41;67974;1276;1016749;-66
2024/03/26 09:02:23;;;;;;;;;;;;;;;21.20;37.53;98085.88;67897;1276;1016496;-66
2024/03/26 09:05:25;;;;;;;;;;;;;;;21.34;37.36;98081.34;67914;1276;1016945;-66
2024/03/26 09:08:27;;;;;;;;;;;;;;;21.46;37.33;98078.95;67932;1276;1016182;-66
2024/03/26 09:11:30;;;;;;;;;;;;;;;21.19;37.34;98077.25;67933;1275;1016459;-66
2024/03/26 09:14:32;;;;;;;;;;;;;;;21.52;36.84;98068.26;67970;1276;1016396;-64
2024/03/26 09:17:34;;;;;;;;;;;;;;;21.69;35.99;98060.59;67966;1276;1016482;-66
2024/03/26 09:20:37;;;;;;;;;;;;;;;21.63;35.88;98050.95;68001;1276;1016411;-66
2024/03/26 09:23:39;;;;;;;;;;;;;;;21.68;36.18;98049.84;67921;1276;1016329;-64
2024/03/26 09:26:41;;;;;;;;;;;;;;;21.67;35.22;98041.19;68003;1276;1016288;-66
2024/03/26 09:29:43;;;;;;;;;;;;;;;21.83;35.34;98040.34;67937;1276;1016347;-65
2024/03/26 09:32:46;;;;;;;;;;;;;;;22.00;34.72;98040.65;67939;1276;1016267;-65
2024/03/26 09:35:48;;;;;;;;;;;;;;;21.90;35.06;98041.67;67891;1276;1016418;-64
2024/03/26 09:38:50;;;;;;;;;;;;;;;21.98;34.11;98047.64;67990;1276;1018332;-64
2024/03/26 09:41:53;;;;;;;;;;;;;;;21.96;34.00;98044.58;68015;1276;1016512;-66
2024/03/26 09:44:55;;;;;;;;;;;;;;;21.96;33.79;98035.05;67971;1276;1016484;-66
2024/03/26 09:47:57;;;;;;;;;;;;;;;22.14;34.07;98030.77;67962;1276;1016465;-66
2024/03/26 09:51:00;;;;;;;;;;;;;;;22.10;33.83;98025.95;67992;1276;1016467;-64
2024/03/26 09:54:03;;;;;;;;;;;;;;;22.07;33.51;98020.95;67947;1276;1016587;-65
2024/03/26 09:57:06;;;;;;;;;;;;;;;22.38;34.13;98025.23;67971;1276;1016254;-66
2024/03/26 10:00:08;;;;;;;;;;;;;;;22.49;33.47;98024.60;67964;1276;1017537;-64
2024/03/26 10:03:12;;;;;;;;;;;;;;;22.53;32.74;98029.25;67948;1276;1015780;-65
2024/03/26 10:06:14;;;;;;;;;;;;;;;22.35;32.33;98030.61;67880;1276;1016474;-65
2024/03/26 10:09:17;;;;;;;;;;;;;;;22.30;32.71;98027.30;67928;1276;1016462;-65
2024/03/26 10:12:19;;;;;;;;;;;;;;;22.50;32.64;98023.05;68022;1276;1016370;-65
2024/03/26 10:15:22;;;;;;;;;;;;;;;22.76;33.02;98021.61;68024;1276;1016492;-66
2024/03/26 10:18:24;;;;;;;;;;;;;;;22.94;32.49;98023.09;67964;1276;1016675;-66
2024/03/26 10:21:26;;;;;;;;;;;;;;;22.92;31.92;98015.26;67881;1276;1016438;-66
2024/03/26 10:24:28;;;;;;;;;;;;;;;23.05;31.78;98010.80;67959;1276;1016367;-65
2024/03/26 10:27:31;;;;;;;;;;;;;;;23.25;32.02;98007.36;67959;1276;1016374;-64
2024/03/26 10:30:33;;;;;;;;;;;;;;;23.50;31.07;98014.15;67979;1276;1016520;-65
2024/03/26 10:33:36;;;;;;;;;;;;;;;23.51;30.79;98012.72;67989;1276;1016140;-66
2024/03/26 10:36:39;;;;;;;;;;;;;;;23.34;29.35;98014.83;67861;1276;1016818;-66
2024/03/26 10:39:41;;;;;;;;;;;;;;;23.37;29.82;98007.48;67901;1276;1016416;-65
2024/03/26 10:42:44;;;;;;;;;;;;;;;23.30;29.48;98006.37;67997;1276;1016217;-66
2024/03/26 10:45:46;;;;;;;;;;;;;;;23.38;29.74;98000.12;67980;1276;1016544;-66
2024/03/26 10:48:48;;;;;;;;;;;;;;;23.62;29.81;97995.86;67997;1276;1016054;-66
2024/03/26 10:51:50;;;;;;;;;;;;;;;23.53;29.18;97993.10;67985;1276;1016264;-65
2024/03/26 10:54:53;;;;;;;;;;;;;;;23.60;29.35;97990.83;67994;1276;1016410;-66
2024/03/26 10:57:55;;;;;;;;;;;;;;;23.69;29.66;97987.61;67934;1276;1016400;-66
2024/03/26 11:00:57;;;;;;;;;;;;;;;23.86;29.11;97982.28;67983;1276;1016418;-66
2024/03/26 11:04:00;;;;;;;;;;;;;;;23.82;28.88;97977.02;67977;1276;1016510;-65
2024/03/26 11:07:02;;;;;;;;;;;;;;;23.78;29.20;97980.42;67970;1276;1016466;-66
2024/03/26 11:10:04;;;;;;;;;;;;;;;23.90;28.99;97979.13;67990;1276;1016460;-66
2024/03/26 11:13:07;;;;;;;;;;;;;;;23.98;28.99;97969.29;67956;1276;1016308;-66
2024/03/26 11:16:09;;;;;;;;;;;;;;;24.05;28.80;97968.03;67948;1276;1016519;-67
2024/03/26 11:19:11;;;;;;;;;;;;;;;24.11;28.74;97964.92;67951;1276;1016490;-64
2024/03/26 11:22:14;;;;;;;;;;;;;;;24.40;28.07;97960.36;67991;1276;1016410;-66
2024/03/26 11:25:16;;;;;;;;;;;;;;;24.42;27.90;97951.95;68006;1276;1018079;-67
2024/03/26 11:28:18;;;;;;;;;;;;;;;24.50;28.60;97945.82;68028;1276;1016752;-66
2024/03/26 11:31:20;;;;;;;;;;;;;;;24.72;28.98;97944.83;67998;1276;1016407;-66
2024/03/26 11:34:23;;;;;;;;;;;;;;;24.95;28.68;97941.24;67960;1276;1016394;-65
2024/03/26 11:37:25;;;;;;;;;;;;;;;25.05;28.45;97941.77;67949;1276;1016395;-66
2024/03/26 11:40:28;;;;;;;;;;;;;;;25.07;27.82;97933.30;67954;1276;1016369;-66
2024/03/26 11:43:30;;;;;;;;;;;;;;;25.10;28.38;97937.39;67923;1276;1016900;-66
2024/03/26 11:46:32;;;;;;;;;;;;;;;25.22;28.38;97937.70;67969;1276;1018344;-65
2024/03/26 11:49:34;;;;;;;;;;;;;;;25.30;27.89;97935.88;67978;1276;1016308;-66
2024/03/26 11:52:37;;;;;;;;;;;;;;;25.34;27.84;97925.63;67993;1276;1016385;-66
2024/03/26 11:55:39;;;;;;;;;;;;;;;25.11;26.90;97922.86;68011;1276;1016451;-66
2024/03/26 11:58:41;;;;;;;;;;;;;;;25.13;27.55;97922.48;68001;1276;1015884;-64
2024/03/26 12:01:44;;;;;;;;;;;;;;;24.62;27.80;97923.88;67989;1276;1016465;-65
2024/03/26 12:04:46;;;;;;;;;;;;;;;24.84;27.87;97916.95;67985;1276;1016403;-67
2024/03/26 12:07:50;;;;;;;;;;;;;;;25.40;26.93;97920.50;67955;1276;1016309;-65
2024/03/26 12:10:53;;;;;;;;;;;;;;;25.30;26.31;97921.21;67956;1276;1016215;-65
2024/03/26 12:13:55;;;;;;;;;;;;;;;25.08;25.74;97913.98;67997;1276;1016696;-65
2024/03/26 12:16:57;;;;;;;;;;;;;;;25.00;26.41;97908.50;68000;1276;1016396;-67
2024/03/26 12:19:59;;;;;;;;;;;;;;;24.56;26.68;97903.41;67989;1275;1016675;-67
2024/03/26 12:23:02;;;;;;;;;;;;;;;24.61;27.18;97899.61;68021;1276;1016528;-65
2024/03/26 12:26:04;;;;;;;;;;;;;;;25.02;26.81;97890.10;67930;1276;1016509;-66
2024/03/26 12:29:07;;;;;;;;;;;;;;;25.16;27.05;97886.64;67872;1276;1016901;-66
2024/03/26 12:32:09;;;;;;;;;;;;;;;25.55;26.29;97882.99;67962;1276;1016267;-65
2024/03/26 12:35:11;;;;;;;;;;;;;;;25.22;26.81;97875.16;68011;1276;1016219;-66
2024/03/26 12:38:13;;;;;;;;;;;;;;;25.82;26.37;97867.54;67990;1276;1016474;-66
2024/03/26 12:41:16;;;;;;;;;;;;;;;25.87;25.68;97866.56;68010;1276;1016538;-66
2024/03/26 12:44:18;;;;;;;;;;;;;;;25.63;26.04;97861.07;67925;1276;1016224;-67
2024/03/26 12:47:20;;;;;;;;;;;;;;;25.86;26.10;97852.97;67942;1276;1016299;-65
2024/03/26 12:50:23;;;;;;;;;;;;;;;26.16;26.09;97850.30;67961;1276;1018059;-66
2024/03/26 12:53:27;;;;;;;;;;;;;;;26.45;25.53;97848.29;67971;1276;1016365;-65
2024/03/26 12:56:29;;;;;;;;;;;;;;;26.31;25.22;97842.77;68008;1276;1016527;-66
2024/03/26 12:59:33;;;;;;;;;;;;;;;26.36;25.43;97838.10;68029;1276;1016330;-65
2024/03/26 13:02:36;;;;;;;;;;;;;;;26.50;25.27;97834.55;67995;1276;1016383;-66
2024/03/26 13:05:38;;;;;;;;;;;;;;;26.53;24.96;97836.89;67959;1276;1016405;-67
2024/03/26 13:08:40;;;;;;;;;;;;;;;26.55;25.11;97834.13;67959;1276;1016362;-65
2024/03/26 13:11:43;;;;;;;;;;;;;;;26.47;24.32;97828.66;67914;1276;1016486;-65
2024/03/26 13:14:45;;;;;;;;;;;;;;;26.49;24.66;97829.06;67942;1276;1018277;-66
2024/03/26 13:17:47;;;;;;;;;;;;;;;26.32;24.86;97831.23;67931;1276;1016381;-66
2024/03/26 13:20:50;;;;;;;;;;;;;;;26.37;24.91;97829.33;67955;1276;1016254;-67
2024/03/26 13:23:52;;;;;;;;;;;;;;;26.42;24.56;97827.80;67907;1276;1016318;-65
2024/03/26 13:26:54;;;;;;;;;;;;;;;26.39;24.03;97826.20;67971;1276;1016303;-67
2024/03/26 13:29:57;;;;;;;;;;;;;;;26.17;24.59;97816.84;67958;1276;1016208;-66
2024/03/26 13:32:59;;;;;;;;;;;;;;;26.01;24.52;97810.95;67978;1276;1016244;-66
2024/03/26 13:36:01;;;;;;;;;;;;;;;25.98;24.33;97805.69;68023;1276;1016692;-66
2024/03/26 13:39:04;;;;;;;;;;;;;;;26.19;24.69;97796.81;68005;1276;1016204;-66
2024/03/26 13:42:07;;;;;;;;;;;;;;;26.28;24.29;97792.86;67954;1276;1016036;-66
2024/03/26 13:45:09;;;;;;;;;;;;;;;26.41;24.30;97794.77;67953;1276;1016381;-65
2024/03/26 13:48:11;;;;;;;;;;;;;;;26.41;23.85;97791.88;67937;1276;1015954;-66
2024/03/26 13:51:14;;;;;;;;;;;;;;;26.41;24.23;97788.36;68010;1276;1016749;-66
2024/03/26 13:54:16;;;;;;;;;;;;;;;26.36;24.27;97780.46;67995;1276;1016527;-66
2024/03/26 13:57:18;;;;;;;;;;;;;;;26.39;24.13;97780.39;68003;1276;1016522;-64
2024/03/26 14:00:21;;;;;;;;;;;;;;;26.61;23.79;97777.82;67979;1276;1016343;-65
2024/03/26 14:03:23;;;;;;;;;;;;;;;26.81;24.02;97771.98;68010;1275;1015937;-66
2024/03/26 14:06:26;;;;;;;;;;;;;;;26.93;24.09;97763.61;67976;1276;1016338;-65
2024/03/26 14:09:29;;;;;;;;;;;;;;;26.79;23.54;97762.77;67923;1276;1016266;-66
2024/03/26 14:12:32;;;;;;;;;;;;;;;26.62;23.68;97754.55;67988;1276;1016327;-65
2024/03/26 14:15:34;;;;;;;;;;;;;;;26.56;23.55;97755.41;68007;1276;1018134;-65
2024/03/26 14:18:36;;;;;;;;;;;;;;;26.29;23.72;97749.30;68013;1276;1016482;-66
2024/03/26 14:21:39;;;;;;;;;;;;;;;26.25;24.00;97746.37;67950;1276;1016245;-66
2024/03/26 14:24:41;;;;;;;;;;;;;;;26.32;24.35;97739.92;67973;1276;1018711;-67
2024/03/26 14:27:43;;;;;;;;;;;;;;;26.48;24.12;97732.00;67948;1276;1016708;-64
2024/03/26 14:30:46;;;;;;;;;;;;;;;26.72;23.82;97727.85;67989;1276;1016271;-66
2024/03/26 14:33:48;;;;;;;;;;;;;;;26.80;23.75;97725.36;68009;1276;1018299;-65
2024/03/26 14:36:50;;;;;;;;;;;;;;;26.77;23.67;97726.50;68005;1276;1016618;-65
2024/03/26 14:39:53;;;;;;;;;;;;;;;26.83;23.60;97717.95;67838;1276;1016164;-66
2024/03/26 14:42:55;;;;;;;;;;;;;;;27.00;23.72;97714.60;67914;1276;1016487;-66
2024/03/26 14:46:01;;;;;;;;;;;;;;;26.69;23.48;97711.36;67944;1276;1016329;-67
2024/03/26 14:49:04;;;;;;;;;;;;;;;26.80;23.42;97707.65;67984;1276;1016111;-64
2024/03/26 14:52:08;;;;;;;;;;;;;;;26.76;23.01;97698.05;68011;1276;1016925;-65
2024/03/26 14:55:10;;;;;;;;;;;;;;;26.50;23.10;97698.48;68021;1276;1016385;-66
2024/03/26 14:58:13;;;;;;;;;;;;;;;26.46;23.07;97695.95;68007;1276;1016401;-64
2024/03/26 15:01:15;;;;;;;;;;;;;;;26.43;23.12;97690.85;68028;1276;1016041;-64
2024/03/26 15:04:17;;;;;;;;;;;;;;;26.37;23.46;97688.36;67966;1276;1016285;-66
2024/03/26 15:07:20;;;;;;;;;;;;;;;26.56;23.23;97679.93;67953;1276;1016216;-66
2024/03/26 15:10:22;;;;;;;;;;;;;;;26.24;23.16;97680.40;67958;1276;1016347;-66
2024/03/26 15:13:24;;;;;;;;;;;;;;;26.24;23.19;97675.08;67986;1276;1016266;-65
2024/03/26 15:16:26;;;;;;;;;;;;;;;26.04;23.27;97672.85;68007;1276;1017296;-67
2024/03/26 15:19:29;;;;;;;;;;;;;;;25.87;23.31;97671.12;67974;1276;1016360;-66
2024/03/26 15:22:32;;;;;;;;;;;;;;;25.67;23.44;97670.02;68022;1276;1016525;-66
2024/03/26 15:25:34;;;;;;;;;;;;;;;25.45;23.58;97673.04;67975;1276;1016430;-66